METAR AND TAF INFORMATION
METAR FOR LOWI
ADDS - METARS form results

(2238 UTC 24 January 2021)
Data provider http://aviationweather.gov/metar/data/
 
METAR text: LOWI 242220Z AUTO VRB03KT 9999 NSC M06/M12 Q1002
Conditions at: LOWI (INNSBRUCK AIRPOR, AT) observed 2220 UTC 24 January 2021
Temperature: -6.0°C (21°F)
Dewpoint: -12.0°C (10°F) [RH = 62%]
Pressure (altimeter): 29.59 inches Hg (1002.0 mb)
Winds: variable direction winds at 3 MPH (3 knots; 1.5 m/s)
Visibility: 6 or more miles (10+ km)
Ceiling: at least 12,000 feet AGL
Clouds: sky clear below 12,000 feet AGL
Weather: no significant weather observed at this time

METAR text: LOWI 242150Z VRB02KT CAVOK M06/M11 Q1002 NOSIG
Conditions at: LOWI (INNSBRUCK AIRPOR, AT) observed 2150 UTC 24 January 2021
Temperature: -6.0°C (21°F)
Dewpoint: -11.0°C (12°F) [RH = 68%]
Pressure (altimeter): 29.59 inches Hg (1002.0 mb)
Winds: variable direction winds at 2 MPH (2 knots; 1.0 m/s)
Visibility: 6 or more miles (10+ km)
Ceiling: ceiling and visibility are OK
Clouds: unknown
Weather: no significant weather observed at this time

Forecast for: LOWI (INNSBRUCK AIRPOR, AT)
Text: TAF LOWI 241715Z 2418/2518 27004KT CAVOK TX00/2514Z TNM07/2506Z
Forecast period: 1800 UTC 24 January 2021 to 1300 UTC 25 January 2021
Forecast type: FROM: standard forecast or significant change
Winds: from the W (270 degrees) at 5 MPH (4 knots; 2.1 m/s)
Visibility: 6 or more miles (10+ km)
Ceiling: unknown
Clouds: missing
Weather: no significant weather forecast for this period
Text: BECMG 2513/2515 -SN SCT050 BKN070
Forecast period: 1300 to 1800 UTC 25 January 2021
Forecast type: BECOMING: Conditions expected to become as follows by 1500 UTC 25 January 2021
Winds: from the W (270 degrees) at 5 MPH (4 knots; 2.1 m/s)
Visibility: 6 or more miles (10+ km)
Ceiling: 7000 feet AGL
Clouds: scattered clouds at 5000 feet AGL
broken clouds at 7000 feet AGL
Weather: -SN  (light snow)
Text: TEMPO 2515/2518 4000 SN
Forecast period: 1500 to 1800 UTC 25 January 2021
Forecast type: TEMPORARY: The following changes expected for less than half the time period
Visibility: 2.49 miles (4.01 km)
Ceiling: unknown
Clouds: missing
Weather: SN  (moderate snow)

 AIRPORT MAP

 RUNWAY INFORMATION
Runway 08 Runway length 6562 ft Runway width 148 ft
Runway elevation 1906 ft Runway displaced threshold 339 ft Runway heading 81
Runway 26 Runway length 6562 ft Runway width 148 ft
Runway elevation 1893 ft Runway displaced threshold 198 ft Runway heading 261

 AIRPORT FREQUENCIES
Type APP Name APP Frequency 119.275 MHZ
Type ATIS Name ATIS Frequency 126.025 MHZ
Type GND Crew Name Frequency 121.8 MHZ
Type GND Crew Name Frequency 121.9 MHZ
Type TWR Name TWR Frequency 120.1 MHZ

 AIRPORT NEAR NAVIGATION AIDS
Type NDB Name Innsbruck Frequency 420 KHZ
Type NDB Name Kuhtai Frequency 413 KHZ



Powered by Virtual Airlines Manager [v2.6.2]